Sharpes, Florida
Current Conditions -  °F | °C
As of 12:47 PM on Thursday 30 Oct 2014 (Local Time) from KTIX Reporting Station
Scattered Clouds Scattered Clouds  
Wind Chill: 81°   Ceiling: Unl
Heat Index: 82°   Visibility: 7mi
Dew Point: 64°   Wind: 6mph
Humidity: 58%   Direction: 290°WNW
Pressure: 29.96"   Gusts: NA
Location:  28.43°N, 80.76°W
Report Text: KTIX 301647Z 29005KT 7SM SCT050 27/18 A2996
Loading
Personal Weather Stations






























Interactive Weather Map
Tropical Storm Tracking
New forecast layout! Learn more

10-Day Weather Forecast

Advertisements
Track Severe Weather on mobile